Página principal
METAR-TAF:

METAR-TAF

Aeroportos :

Tashkent, Uzbequistão

Aeroporto Internacional de Tashkent

latitude: 41-16N, longitude: 069-16E, altura: 489 m

Observação actual do tempo

O boletim foi feito há 29 minutos, às 17:00 UTC
Vento 8 kt de nor-noroeste
Temperatura 27°C
Humidade 23%
Pressão 1011 hPa
Visibilidade 10 km ou mais
sem nuvens abaixo de 1500 metros e sem cumulonimbus

METAR: UTTT 281700Z 33008KT CAVOK 27/04 Q1011 R08R/CLRD70 NOSIG

Hora: 22:29 (17:29 UTC)

Previsão

O boletim foi feito há 6 horas e 29 minutos, às 11:00 UTC
Previsão válida de 28 às 12 UTC a 29 às 12 UTC
Vento 10 kt de norte com rajadas de 20 kt
Visibilidade: 7000 m
Poucas nuvensa uma altura de 6000 ft, Cumulonimbus.
Nuvens dispersasa uma altura de 10000 ft

TAF: UTTT 281100Z 2812/2912 01010G20KT 7000 FEW060CB SCT100 TX35/2910Z

Observações e previsões do tempo de mais de 4000 aeroportos (mensagens METAR e TAF).

As estações disponíveis são os pontos amarelos e vermelhos sobre o mapa.

Mova o rato sobre o mapa para ver o nome da estação.

Depois clique no ponto para visualizar as observações e previsões meteorológicas.

Para alterar o mapa : clique nos botões verdes com uma cruz preta para aumentar o zoom; no botão verde com uma pitada de zoom; ou nas setas verdes para mapas adjacentes.


METAR-TAF: